createdAt,value
2019-04-25T00:00:51.438Z,10.78
2019-04-25T00:01:31.331Z,11.43
2019-04-25T00:02:11.567Z,10.90
2019-04-25T00:02:46.482Z,11.80
2019-04-25T00:03:22.334Z,10.63
2019-04-25T00:03:56.679Z,11.33
2019-04-25T00:04:31.507Z,10.50
2019-04-25T00:05:08.277Z,11.43
2019-04-25T00:05:43.524Z,11.50
2019-04-25T00:06:18.595Z,11.05
2019-04-25T00:06:53.318Z,10.95
2019-04-25T00:07:27.928Z,10.85
2019-04-25T00:08:02.020Z,11.45
2019-04-25T00:08:37.243Z,11.22
2019-04-25T00:09:16.421Z,10.98
2019-04-25T00:09:55.422Z,11.03
2019-04-25T00:10:29.791Z,10.40
2019-04-25T00:11:04.758Z,10.70
2019-04-25T00:11:39.345Z,10.58
2019-04-25T00:12:13.747Z,10.45
2019-04-25T00:12:48.238Z,11.08
2019-04-25T00:13:23.277Z,11.78
2019-04-25T00:13:57.327Z,11.70
2019-04-25T00:14:32.278Z,11.40
2019-04-25T00:15:07.387Z,11.22
2019-04-25T00:15:44.470Z,11.35
2019-04-25T00:16:19.682Z,10.95
2019-04-25T00:16:54.384Z,10.43
2019-04-25T00:17:28.613Z,10.72
2019-04-25T00:18:03.018Z,11.10
2019-04-25T00:18:38.509Z,10.78
2019-04-25T00:19:12.956Z,10.75
2019-04-25T00:19:47.507Z,10.98
2019-04-25T00:20:22.277Z,11.08
2019-04-25T00:21:01.431Z,9.95
2019-04-25T00:21:42.528Z,11.35
2019-04-25T00:22:41.154Z,10.78
2019-04-25T00:23:17.407Z,10.23
2019-04-25T00:23:55.145Z,11.78
2019-04-25T00:24:48.449Z,10.15
2019-04-25T00:25:45.415Z,10.68
2019-04-25T00:26:31.164Z,10.28
2019-04-25T00:27:05.728Z,10.80
2019-04-25T00:27:40.915Z,10.80
2019-04-25T00:28:15.910Z,10.40
2019-04-25T00:28:50.096Z,10.70
2019-04-25T00:29:24.489Z,10.30
2019-04-25T00:29:58.796Z,10.78
2019-04-25T00:30:33.223Z,10.95
2019-04-25T00:31:07.697Z,9.63
2019-04-25T00:31:43.684Z,11.10
2019-04-25T00:32:17.824Z,9.20
2019-04-25T00:32:51.982Z,10.18
2019-04-25T00:33:26.303Z,10.30
2019-04-25T00:34:02.071Z,10.15
2019-04-25T00:34:36.592Z,9.93
2019-04-25T00:35:11.809Z,10.18
2019-04-25T00:35:46.182Z,10.08
2019-04-25T00:36:21.822Z,9.23
2019-04-25T00:36:56.121Z,10.28
2019-04-25T00:37:32.205Z,9.55
2019-04-25T00:38:06.627Z,9.53
2019-04-25T00:38:42.927Z,9.78
2019-04-25T00:39:16.894Z,10.08
2019-04-25T00:39:51.719Z,9.38
2019-04-25T00:40:26.052Z,9.50
2019-04-25T00:41:01.671Z,9.28
2019-04-25T00:41:36.126Z,8.50
2019-04-25T00:42:12.111Z,10.05
2019-04-25T00:42:46.463Z,9.75
2019-04-25T00:43:21.477Z,9.63
2019-04-25T00:43:56.061Z,9.95
2019-04-25T00:44:31.803Z,10.48
2019-04-25T00:45:06.649Z,9.13
2019-04-25T00:45:42.400Z,9.25
2019-04-25T00:46:16.818Z,10.05
2019-04-25T00:46:54.881Z,8.95
2019-04-25T00:47:27.012Z,9.58
2019-04-25T00:48:04.031Z,10.20
2019-04-25T00:48:37.013Z,9.53
2019-04-25T00:49:12.264Z,10.63
2019-04-25T00:49:46.637Z,9.15
2019-04-25T00:50:21.930Z,9.20
2019-04-25T00:50:56.255Z,9.08
2019-04-25T00:51:31.780Z,9.68
2019-04-25T00:52:06.207Z,8.80
2019-04-25T00:52:42.378Z,9.60
2019-04-25T00:53:16.347Z,9.50
2019-04-25T00:53:53.683Z,9.85
2019-04-25T00:54:26.391Z,9.75
2019-04-25T00:55:01.870Z,10.23
2019-04-25T00:55:36.253Z,9.43
2019-04-25T00:56:11.262Z,9.28
2019-04-25T00:56:47.794Z,9.35
2019-04-25T00:57:22.075Z,9.90
2019-04-25T00:58:03.372Z,9.40
2019-04-25T00:58:45.366Z,10.23
2019-04-25T00:59:32.067Z,9.85
2019-04-25T01:00:30.360Z,9.40
2019-04-25T01:01:23.659Z,9.30
2019-04-25T01:02:19.308Z,8.80
2019-04-25T01:02:54.586Z,9.85
2019-04-25T01:03:31.686Z,9.35
2019-04-25T01:04:06.136Z,8.50
2019-04-25T01:04:41.847Z,8.70
2019-04-25T01:05:16.172Z,9.85
2019-04-25T01:05:52.408Z,10.18
2019-04-25T01:06:26.565Z,9.63
2019-04-25T01:07:01.486Z,9.20
2019-04-25T01:07:35.751Z,9.70
2019-04-25T01:08:11.961Z,9.75
2019-04-25T01:08:45.919Z,9.35
2019-04-25T01:09:22.268Z,8.75
2019-04-25T01:09:56.396Z,9.40
2019-04-25T01:10:31.593Z,8.15
2019-04-25T01:11:05.832Z,8.65
2019-04-25T01:11:40.070Z,9.10
2019-04-25T01:12:15.579Z,8.95
2019-04-25T01:12:50.716Z,9.83
2019-04-25T01:13:25.855Z,8.60
2019-04-25T01:14:00.005Z,8.83
2019-04-25T01:14:34.301Z,9.60
2019-04-25T01:15:11.610Z,9.60
2019-04-25T01:15:46.404Z,9.75
2019-04-25T01:16:21.959Z,8.63
2019-04-25T01:16:56.387Z,9.28
2019-04-25T01:17:31.516Z,9.03
2019-04-25T01:18:05.770Z,9.60
2019-04-25T01:18:40.070Z,10.58
2019-04-25T01:19:14.412Z,9.83
2019-04-25T01:19:48.941Z,8.75
2019-04-25T01:20:23.975Z,9.13
2019-04-25T01:20:58.475Z,9.80
2019-04-25T01:21:33.996Z,9.20
2019-04-25T01:22:08.664Z,9.50
2019-04-25T01:22:44.075Z,9.93
2019-04-25T01:23:18.351Z,9.83
2019-04-25T01:23:53.692Z,10.30
2019-04-25T01:24:31.602Z,9.83
2019-04-25T01:25:06.819Z,9.65
2019-04-25T01:25:44.277Z,9.65
2019-04-25T01:26:17.702Z,9.85
2019-04-25T01:26:53.618Z,9.48
2019-04-25T01:27:28.263Z,10.03
2019-04-25T01:28:03.244Z,9.43
2019-04-25T01:28:37.800Z,9.90
2019-04-25T01:29:13.496Z,10.08
2019-04-25T01:29:48.117Z,9.35
2019-04-25T01:30:24.650Z,10.60
2019-04-25T01:30:59.461Z,10.13
2019-04-25T01:31:33.897Z,10.20
2019-04-25T01:32:09.137Z,9.63
2019-04-25T01:32:44.665Z,10.55
2019-04-25T01:33:19.469Z,9.35
2019-04-25T01:33:54.599Z,9.63
2019-04-25T01:34:48.871Z,11.22
2019-04-25T01:35:43.057Z,10.30
2019-04-25T01:36:37.207Z,9.90
2019-04-25T01:37:18.503Z,10.40
2019-04-25T01:38:10.511Z,10.40
2019-04-25T01:38:53.076Z,10.00
2019-04-25T01:39:37.280Z,9.33
2019-04-25T01:40:30.640Z,10.08
2019-04-25T01:41:24.406Z,9.80
2019-04-25T01:42:17.692Z,9.70
2019-04-25T01:43:11.151Z,9.45
2019-04-25T01:43:56.623Z,8.78
2019-04-25T01:44:34.030Z,9.50
2019-04-25T01:45:08.790Z,9.98
2019-04-25T01:45:43.799Z,10.75
2019-04-25T01:46:18.471Z,9.40
2019-04-25T01:46:54.477Z,9.93
2019-04-25T01:47:28.965Z,10.05
2019-04-25T01:48:03.589Z,10.35
2019-04-25T01:48:37.942Z,9.58
2019-04-25T01:49:13.915Z,9.85
2019-04-25T01:49:48.845Z,9.50
2019-04-25T01:50:23.336Z,10.05
2019-04-25T01:50:58.510Z,9.83
2019-04-25T01:51:33.945Z,10.18
2019-04-25T01:52:08.438Z,9.68
2019-04-25T01:52:43.420Z,9.53
2019-04-25T01:53:17.782Z,9.35
2019-04-25T01:53:53.051Z,9.30
2019-04-25T01:54:28.174Z,10.35
2019-04-25T01:55:03.468Z,10.18
2019-04-25T01:55:50.959Z,9.55
2019-04-25T01:56:15.104Z,9.90
2019-04-25T01:56:49.639Z,9.85
2019-04-25T01:57:24.020Z,9.83
2019-04-25T01:57:59.350Z,9.20
2019-04-25T01:58:33.829Z,10.03
2019-04-25T01:59:08.112Z,9.30
2019-04-25T01:59:43.859Z,8.80
2019-04-25T02:00:23.609Z,10.38
2019-04-25T02:00:58.598Z,10.30
2019-04-25T02:01:34.066Z,9.58
2019-04-25T02:02:10.114Z,10.10
2019-04-25T02:02:44.206Z,9.85
2019-04-25T02:03:18.544Z,9.45
2019-04-25T02:03:54.317Z,10.48
2019-04-25T02:04:28.901Z,10.32
2019-04-25T02:05:05.121Z,9.93
2019-04-25T02:05:39.509Z,9.63
2019-04-25T02:06:13.982Z,9.25
2019-04-25T02:06:48.333Z,8.60
2019-04-25T02:07:23.383Z,9.23
2019-04-25T02:07:57.650Z,9.28
2019-04-25T02:08:31.879Z,8.53
2019-04-25T02:09:10.394Z,9.10
2019-04-25T02:09:45.092Z,9.30
2019-04-25T02:10:19.902Z,8.85
2019-04-25T02:11:04.763Z,8.78
2019-04-25T02:11:45.470Z,9.70
2019-04-25T02:12:25.768Z,9.40
2019-04-25T02:13:03.807Z,8.58
2019-04-25T02:13:37.924Z,8.43
2019-04-25T02:14:13.605Z,9.63
2019-04-25T02:14:48.026Z,9.70
2019-04-25T02:15:25.470Z,9.70
2019-04-25T02:15:59.624Z,8.83
2019-04-25T02:16:35.333Z,9.13
2019-04-25T02:17:09.685Z,9.35
2019-04-25T02:17:43.993Z,9.03
2019-04-25T02:18:18.342Z,9.43
2019-04-25T02:18:54.216Z,9.03
2019-04-25T02:19:28.389Z,8.63
2019-04-25T02:20:04.209Z,9.03
2019-04-25T02:20:38.593Z,9.20
2019-04-25T02:21:13.759Z,8.53
2019-04-25T02:21:48.152Z,8.40
2019-04-25T02:22:22.244Z,8.20
2019-04-25T02:22:56.567Z,9.35
2019-04-25T02:23:30.673Z,8.93
2019-04-25T02:24:05.679Z,8.33
2019-04-25T02:24:40.142Z,8.90
2019-04-25T02:25:14.309Z,8.65
2019-04-25T02:25:48.757Z,8.73
2019-04-25T02:26:24.073Z,8.43
2019-04-25T02:26:58.788Z,8.78
2019-04-25T02:27:34.262Z,9.18
2019-04-25T02:28:08.671Z,8.88
2019-04-25T02:28:43.716Z,9.23
2019-04-25T02:29:18.211Z,8.48
2019-04-25T02:29:52.957Z,8.00
2019-04-25T02:30:28.336Z,8.48
2019-04-25T02:31:08.165Z,8.60
2019-04-25T02:31:38.570Z,8.60
2019-04-25T02:32:14.642Z,8.40
2019-04-25T02:32:48.956Z,9.83
2019-04-25T02:33:24.192Z,9.20
2019-04-25T02:34:00.743Z,9.30
2019-04-25T02:34:34.868Z,9.05
2019-04-25T02:35:10.066Z,8.40
2019-04-25T02:35:46.788Z,9.20
2019-04-25T02:36:20.196Z,8.13
2019-04-25T02:36:58.867Z,8.85
2019-04-25T02:37:30.484Z,8.50
2019-04-25T02:38:08.911Z,8.85
2019-04-25T02:38:40.913Z,9.53
2019-04-25T02:39:19.508Z,8.18
2019-04-25T02:39:56.660Z,8.28
2019-04-25T02:40:29.792Z,8.25
2019-04-25T02:41:08.382Z,8.15
2019-04-25T02:41:40.298Z,8.93
2019-04-25T02:42:16.895Z,9.35
2019-04-25T02:42:50.649Z,8.98
2019-04-25T02:43:25.019Z,8.83
2019-04-25T02:44:03.706Z,8.50
2019-04-25T02:44:37.223Z,8.70
2019-04-25T02:45:30.813Z,8.18
2019-04-25T02:46:25.171Z,9.10
2019-04-25T02:47:14.647Z,9.28
2019-04-25T02:48:07.034Z,9.10
2019-04-25T02:49:02.657Z,8.05
2019-04-25T02:49:55.812Z,9.23
2019-04-25T02:50:45.879Z,8.55
2019-04-25T02:51:24.657Z,8.65
2019-04-25T02:52:06.947Z,8.70
2019-04-25T02:52:41.712Z,8.78
2019-04-25T02:53:37.304Z,8.38
2019-04-25T02:54:11.047Z,8.45
2019-04-25T02:54:45.299Z,9.05
2019-04-25T02:55:30.887Z,9.45
2019-04-25T02:55:56.399Z,8.68
2019-04-25T02:56:37.669Z,8.25
2019-04-25T02:57:08.318Z,8.90
2019-04-25T02:57:44.699Z,8.13
2019-04-25T02:58:18.812Z,8.05
2019-04-25T02:58:54.265Z,8.48
2019-04-25T02:59:29.057Z,8.48
2019-04-25T03:00:07.318Z,8.40
2019-04-25T03:00:55.077Z,8.70
2019-04-25T03:01:22.329Z,8.08
2019-04-25T03:01:54.207Z,8.28
2019-04-25T03:02:28.745Z,8.90
2019-04-25T03:03:05.656Z,8.70
2019-04-25T03:03:39.382Z,9.53
2019-04-25T03:04:14.561Z,8.53
2019-04-25T03:04:48.859Z,8.55
2019-04-25T03:05:25.429Z,8.83
2019-04-25T03:05:59.644Z,9.53
2019-04-25T03:06:35.141Z,8.45
2019-04-25T03:07:11.260Z,9.00
2019-04-25T03:07:45.728Z,8.40
2019-04-25T03:08:20.195Z,9.33
2019-04-25T03:08:54.764Z,10.15
2019-04-25T03:09:29.218Z,10.15
2019-04-25T03:10:07.675Z,9.38
2019-04-25T03:10:40.337Z,9.58
2019-04-25T03:11:15.121Z,9.40
2019-04-25T03:11:49.553Z,9.10
2019-04-25T03:12:32.511Z,8.88
2019-04-25T03:13:00.756Z,8.80
2019-04-25T03:13:36.463Z,9.33
2019-04-25T03:14:10.829Z,8.78
2019-04-25T03:14:45.453Z,8.80
2019-04-25T03:15:19.974Z,8.63
2019-04-25T03:15:55.683Z,10.43
2019-04-25T03:16:30.233Z,8.58
2019-04-25T03:17:06.926Z,9.30
2019-04-25T03:17:40.738Z,8.90
2019-04-25T03:18:16.714Z,9.23
2019-04-25T03:18:59.445Z,8.68
2019-04-25T03:19:55.184Z,7.72
2019-04-25T03:20:35.848Z,8.05
2019-04-25T03:21:17.445Z,8.43
2019-04-25T03:21:54.962Z,8.68
2019-04-25T03:22:29.763Z,8.65
2019-04-25T03:23:14.530Z,8.53
2019-04-25T03:23:49.465Z,8.53
2019-04-25T03:24:25.033Z,8.35
2019-04-25T03:25:01.799Z,8.75
2019-04-25T03:25:36.308Z,8.63
2019-04-25T03:26:10.717Z,10.38
2019-04-25T03:26:45.021Z,8.80
2019-04-25T03:27:19.253Z,8.70
2019-04-25T03:27:54.071Z,8.38
2019-04-25T03:28:28.668Z,8.58
2019-04-25T03:29:04.665Z,8.43
2019-04-25T03:29:39.265Z,7.67
2019-04-25T03:30:17.405Z,8.45
2019-04-25T03:30:50.039Z,7.70
2019-04-25T03:31:27.214Z,7.97
2019-04-25T03:32:00.928Z,8.38
2019-04-25T03:32:36.749Z,8.53
2019-04-25T03:33:18.167Z,7.35
2019-04-25T03:33:47.118Z,7.97
2019-04-25T03:34:21.285Z,7.80
2019-04-25T03:34:55.817Z,8.08
2019-04-25T03:35:30.218Z,8.13
2019-04-25T03:36:06.458Z,7.95
2019-04-25T03:36:41.289Z,7.62
2019-04-25T03:37:15.902Z,8.50
2019-04-25T03:37:50.413Z,7.70
2019-04-25T03:38:24.965Z,7.30
2019-04-25T03:38:59.031Z,7.67
2019-04-25T03:39:33.648Z,8.40
2019-04-25T03:40:09.598Z,8.18
2019-04-25T03:40:44.022Z,7.58
2019-04-25T03:41:18.585Z,7.87
2019-04-25T03:41:53.949Z,7.17
2019-04-25T03:42:28.492Z,7.53
2019-04-25T03:43:04.774Z,7.45
2019-04-25T03:43:38.662Z,8.35
2019-04-25T03:44:13.961Z,7.45
2019-04-25T03:44:48.299Z,7.65
2019-04-25T03:45:23.687Z,7.97
2019-04-25T03:45:58.153Z,8.08
2019-04-25T03:46:33.383Z,7.75
2019-04-25T03:47:08.607Z,7.40
2019-04-25T03:47:43.302Z,8.30
2019-04-25T03:48:17.650Z,7.30
2019-04-25T03:48:52.025Z,7.90
2019-04-25T03:49:26.426Z,7.95
2019-04-25T03:50:01.576Z,7.42
2019-04-25T03:50:37.095Z,7.40
2019-04-25T03:51:12.249Z,8.55
2019-04-25T03:51:47.619Z,8.13
2019-04-25T03:52:23.763Z,7.45
2019-04-25T03:52:58.178Z,7.28
2019-04-25T03:53:33.792Z,6.97
2019-04-25T03:54:09.330Z,8.30
2019-04-25T03:54:44.287Z,7.58
2019-04-25T03:55:18.679Z,7.92
2019-04-25T03:55:54.034Z,7.65
2019-04-25T03:56:28.517Z,7.83
2019-04-25T03:57:05.294Z,7.60
2019-04-25T03:57:38.943Z,7.87
2019-04-25T03:58:14.618Z,7.80
2019-04-25T03:58:49.037Z,7.30
2019-04-25T03:59:23.745Z,7.40
2019-04-25T03:59:58.157Z,7.17
2019-04-25T04:00:34.222Z,7.55
2019-04-25T04:01:09.616Z,8.13
2019-04-25T04:01:44.118Z,8.28
2019-04-25T04:02:18.285Z,7.33
2019-04-25T04:02:53.754Z,7.65
2019-04-25T04:03:28.649Z,7.62
2019-04-25T04:04:04.618Z,7.33
2019-04-25T04:04:39.003Z,7.90
2019-04-25T04:05:14.821Z,7.50
2019-04-25T04:05:49.770Z,8.03
2019-04-25T04:06:24.391Z,7.80
2019-04-25T04:06:58.650Z,7.95
2019-04-25T04:07:33.715Z,7.45
2019-04-25T04:08:08.173Z,7.35
2019-04-25T04:08:44.114Z,6.80
2019-04-25T04:09:18.657Z,7.45
2019-04-25T04:09:53.244Z,7.37
2019-04-25T04:10:29.432Z,7.50
2019-04-25T04:11:05.333Z,7.45
2019-04-25T04:11:40.012Z,7.70
2019-04-25T04:12:14.815Z,7.37
2019-04-25T04:12:49.906Z,7.00
2019-04-25T04:13:24.441Z,7.62
2019-04-25T04:13:58.821Z,6.97
2019-04-25T04:14:33.817Z,6.95
2019-04-25T04:15:08.781Z,6.92
2019-04-25T04:15:43.360Z,6.75
2019-04-25T04:16:20.881Z,6.67
2019-04-25T04:17:15.110Z,6.72
2019-04-25T04:17:55.181Z,6.30
2019-04-25T04:18:48.583Z,7.53
2019-04-25T04:19:24.018Z,7.17
2019-04-25T04:20:17.697Z,6.42
2019-04-25T04:20:58.759Z,6.65
2019-04-25T04:21:48.633Z,6.87
2019-04-25T04:22:35.881Z,7.08
2019-04-25T04:23:17.725Z,6.35
2019-04-25T04:24:11.746Z,6.12
2019-04-25T04:24:50.080Z,6.45
2019-04-25T04:25:24.523Z,6.60
2019-04-25T04:25:58.763Z,6.47
2019-04-25T04:26:33.288Z,6.30
2019-04-25T04:27:14.115Z,6.17
2019-04-25T04:27:48.706Z,6.70
2019-04-25T04:28:23.657Z,5.72
2019-04-25T04:28:58.352Z,6.03
2019-04-25T04:29:33.182Z,5.75
2019-04-25T04:30:08.091Z,5.90
2019-04-25T04:30:43.607Z,5.85
2019-04-25T04:31:18.033Z,6.42
2019-04-25T04:31:52.877Z,6.10
2019-04-25T04:32:28.163Z,5.72
2019-04-25T04:33:03.624Z,6.17
2019-04-25T04:33:38.588Z,6.35
2019-04-25T04:34:14.369Z,5.53
2019-04-25T04:34:48.927Z,6.72
2019-04-25T04:35:23.570Z,6.10
2019-04-25T04:35:57.958Z,5.87
2019-04-25T04:36:33.749Z,5.80
2019-04-25T04:37:08.965Z,6.17
2019-04-25T04:37:43.535Z,6.05
2019-04-25T04:38:18.130Z,5.87
2019-04-25T04:38:54.225Z,6.35
2019-04-25T04:39:28.520Z,5.97
2019-04-25T04:40:03.587Z,6.28
2019-04-25T04:40:38.233Z,5.17
2019-04-25T04:41:14.280Z,5.30
2019-04-25T04:41:48.600Z,6.12
2019-04-25T04:42:23.735Z,5.80
2019-04-25T04:42:58.111Z,5.72
2019-04-25T04:43:34.103Z,5.83
2019-04-25T04:44:08.706Z,5.00
2019-04-25T04:44:43.720Z,5.95
2019-04-25T04:45:18.450Z,5.67
2019-04-25T04:45:54.090Z,5.80
2019-04-25T04:46:28.676Z,6.08
2019-04-25T04:47:04.060Z,5.60
2019-04-25T04:47:38.381Z,6.12
2019-04-25T04:48:14.234Z,6.15
2019-04-25T04:48:48.938Z,5.72
2019-04-25T04:49:23.815Z,6.03
2019-04-25T04:49:58.289Z,5.83
2019-04-25T04:50:33.652Z,5.45
2019-04-25T04:51:08.937Z,5.83
2019-04-25T04:51:44.394Z,5.50
2019-04-25T04:52:18.929Z,6.08
2019-04-25T04:52:53.992Z,6.97
2019-04-25T04:53:28.396Z,5.85
2019-04-25T04:54:03.415Z,5.80
2019-04-25T04:54:37.861Z,6.67
2019-04-25T04:55:14.634Z,5.37
2019-04-25T04:55:48.429Z,5.50
2019-04-25T04:56:23.911Z,5.50
2019-04-25T04:56:58.917Z,6.12
2019-04-25T04:57:36.111Z,5.90
2019-04-25T04:58:09.250Z,5.90
2019-04-25T04:58:43.554Z,5.97
2019-04-25T04:59:18.596Z,5.75
2019-04-25T04:59:53.567Z,6.10
2019-04-25T05:00:28.494Z,5.15
2019-04-25T05:01:03.680Z,8.35
2019-04-25T05:01:55.582Z,5.97
2019-04-25T05:02:48.474Z,5.55
2019-04-25T05:03:36.479Z,6.05
2019-04-25T05:04:17.150Z,5.55
2019-04-25T05:05:10.621Z,5.25
2019-04-25T05:05:59.235Z,6.37
2019-04-25T05:06:53.711Z,5.45
2019-04-25T05:07:47.426Z,5.42
2019-04-25T05:08:27.582Z,5.78
2019-04-25T05:09:22.341Z,6.08
2019-04-25T05:09:57.115Z,6.10
2019-04-25T05:10:33.187Z,5.62
2019-04-25T05:11:07.534Z,5.97
2019-04-25T05:11:41.717Z,6.08
2019-04-25T05:12:16.229Z,6.12
2019-04-25T05:12:50.484Z,5.28
2019-04-25T05:13:24.707Z,5.67
2019-04-25T05:13:58.881Z,5.33
2019-04-25T05:14:33.718Z,5.80
2019-04-25T05:15:09.041Z,5.78
2019-04-25T05:15:44.584Z,6.83
2019-04-25T05:16:19.845Z,5.92
2019-04-25T05:16:54.172Z,6.30
2019-04-25T05:17:28.438Z,5.60
2019-04-25T05:18:04.020Z,5.37
2019-04-25T05:18:40.089Z,6.15
2019-04-25T05:19:15.529Z,4.87
2019-04-25T05:19:50.773Z,5.40
2019-04-25T05:20:25.192Z,5.72
2019-04-25T05:20:59.479Z,5.50
2019-04-25T05:21:33.768Z,5.50
2019-04-25T05:22:08.084Z,4.92
2019-04-25T05:22:42.373Z,5.17
2019-04-25T05:23:17.141Z,6.70
2019-04-25T05:23:51.422Z,5.45
2019-04-25T05:24:26.390Z,5.12
2019-04-25T05:25:01.147Z,5.55
2019-04-25T05:25:35.359Z,5.42
2019-04-25T05:26:09.724Z,5.80
2019-04-25T05:26:44.100Z,5.30
2019-04-25T05:27:32.243Z,7.72
2019-04-25T05:28:02.905Z,6.45
2019-04-25T05:28:30.963Z,6.62
2019-04-25T05:29:05.412Z,6.10
2019-04-25T05:29:39.887Z,9.55
2019-04-25T05:30:19.158Z,6.25
2019-04-25T05:31:09.084Z,6.70
2019-04-25T05:31:48.961Z,5.47
2019-04-25T05:32:24.962Z,5.95
2019-04-25T05:32:59.666Z,6.03
2019-04-25T05:33:33.918Z,7.15
2019-04-25T05:34:08.282Z,8.70
2019-04-25T05:34:44.094Z,5.97
2019-04-25T05:35:18.715Z,6.30
2019-04-25T05:35:53.906Z,5.80
2019-04-25T05:36:37.627Z,5.37
2019-04-25T05:37:14.378Z,6.33
2019-04-25T05:37:48.362Z,5.53
2019-04-25T05:38:24.322Z,6.17
2019-04-25T05:38:58.880Z,5.20
2019-04-25T05:39:33.504Z,5.20
2019-04-25T05:40:08.186Z,6.50
2019-04-25T05:40:53.935Z,5.92
2019-04-25T05:41:37.565Z,5.58
2019-04-25T05:42:26.171Z,6.60
2019-04-25T05:43:10.430Z,6.83
2019-04-25T05:43:44.783Z,4.97
2019-04-25T05:44:19.382Z,4.47
2019-04-25T05:44:54.153Z,5.47
2019-04-25T05:45:29.589Z,6.75
2019-04-25T05:46:03.834Z,5.92
2019-04-25T05:46:38.225Z,6.35
2019-04-25T05:47:15.071Z,5.97
2019-04-25T05:47:51.885Z,5.83
2019-04-25T05:48:26.404Z,6.20
2019-04-25T05:49:00.859Z,7.05
2019-04-25T05:49:35.405Z,6.90
2019-04-25T05:50:10.038Z,6.55
2019-04-25T05:50:44.481Z,5.95
2019-04-25T05:51:19.525Z,5.70
2019-04-25T05:51:54.001Z,5.50
2019-04-25T05:52:28.370Z,6.08
2019-04-25T05:53:04.305Z,5.62
2019-04-25T05:53:38.630Z,5.55
2019-04-25T05:54:14.078Z,6.95
2019-04-25T05:54:48.641Z,7.58
2019-04-25T05:55:24.152Z,5.87
2019-04-25T05:55:59.116Z,8.20
2019-04-25T05:56:33.777Z,7.05
2019-04-25T05:57:08.459Z,6.03
2019-04-25T05:57:47.425Z,6.62
2019-04-25T05:58:19.073Z,7.62
2019-04-25T05:58:53.346Z,6.30
2019-04-25T05:59:28.010Z,6.45
2019-04-25T06:00:03.660Z,6.53
2019-04-25T06:00:38.126Z,6.40
2019-04-25T06:01:13.397Z,5.50
2019-04-25T06:01:51.160Z,6.35
2019-04-25T06:02:26.519Z,6.37
2019-04-25T06:03:01.054Z,5.75
2019-04-25T06:03:35.752Z,6.05
2019-04-25T06:04:10.125Z,7.00
2019-04-25T06:04:44.482Z,5.92
2019-04-25T06:05:19.099Z,6.00
2019-04-25T06:05:53.861Z,7.28
2019-04-25T06:06:28.298Z,6.78
2019-04-25T06:07:02.572Z,6.25
2019-04-25T06:07:37.047Z,5.85
2019-04-25T06:08:11.357Z,5.60
2019-04-25T06:08:52.083Z,5.72
2019-04-25T06:09:45.658Z,5.92
2019-04-25T06:10:34.542Z,5.78
2019-04-25T06:11:25.090Z,5.75
2019-04-25T06:12:19.837Z,5.80
2019-04-25T06:13:13.910Z,5.12
2019-04-25T06:13:56.223Z,5.95
2019-04-25T06:14:30.562Z,4.97
2019-04-25T06:15:05.815Z,5.00
2019-04-25T06:15:40.189Z,7.05
2019-04-25T06:16:28.593Z,6.90
2019-04-25T06:17:06.843Z,6.60
2019-04-25T06:18:00.307Z,5.92
2019-04-25T06:18:40.674Z,8.30
2019-04-25T06:19:22.007Z,7.08
2019-04-25T06:19:57.139Z,5.45
2019-04-25T06:20:34.850Z,6.12
2019-04-25T06:21:10.293Z,6.42
2019-04-25T06:21:44.661Z,6.60
2019-04-25T06:22:24.668Z,5.35
2019-04-25T06:23:09.621Z,6.10
2019-04-25T06:23:52.050Z,6.08
2019-04-25T06:24:34.331Z,5.35
2019-04-25T06:25:13.770Z,7.05
2019-04-25T06:25:46.210Z,6.92
2019-04-25T06:26:31.021Z,5.87
2019-04-25T06:27:15.978Z,6.12
2019-04-25T06:27:57.267Z,6.45
2019-04-25T06:28:29.169Z,5.45
2019-04-25T06:29:03.491Z,5.80
2019-04-25T06:29:37.843Z,5.72
2019-04-25T06:30:18.047Z,6.08
2019-04-25T06:30:53.997Z,5.60
2019-04-25T06:31:29.283Z,6.45
2019-04-25T06:32:08.035Z,6.92
2019-04-25T06:32:39.684Z,7.33
2019-04-25T06:33:14.253Z,6.70
2019-04-25T06:33:48.860Z,6.10
2019-04-25T06:34:25.411Z,5.62
2019-04-25T06:34:59.246Z,6.10
2019-04-25T06:35:35.919Z,5.83
2019-04-25T06:36:10.449Z,6.15
2019-04-25T06:36:45.048Z,6.03
2019-04-25T06:37:24.294Z,7.08
2019-04-25T06:37:58.363Z,6.20
2019-04-25T06:38:33.495Z,5.67
2019-04-25T06:39:09.101Z,4.92
2019-04-25T06:39:44.268Z,5.45
2019-04-25T06:40:20.703Z,6.58
2019-04-25T06:40:55.080Z,6.42
2019-04-25T06:41:29.323Z,5.25
2019-04-25T06:42:04.079Z,6.47
2019-04-25T06:42:39.857Z,6.10
2019-04-25T06:43:14.463Z,6.17
2019-04-25T06:43:50.428Z,5.90
2019-04-25T06:44:36.305Z,6.42
2019-04-25T06:45:22.218Z,6.47
2019-04-25T06:46:17.037Z,6.65
2019-04-25T06:47:03.378Z,5.55
2019-04-25T06:47:44.263Z,6.70
2019-04-25T06:48:27.241Z,5.97
2019-04-25T06:49:09.784Z,5.87
2019-04-25T06:49:44.505Z,5.37
2019-04-25T06:50:18.862Z,6.05
2019-04-25T06:50:53.734Z,5.92
2019-04-25T06:51:47.386Z,5.33
2019-04-25T06:52:24.621Z,5.30
2019-04-25T06:52:57.924Z,5.03
2019-04-25T06:53:34.493Z,5.05
2019-04-25T06:54:08.741Z,5.70
2019-04-25T06:54:43.701Z,6.53
2019-04-25T06:55:20.920Z,6.00
2019-04-25T06:55:55.063Z,6.03
2019-04-25T06:56:29.539Z,5.72
2019-04-25T06:57:04.549Z,5.17
2019-04-25T06:57:39.145Z,4.47
2019-04-25T06:58:14.573Z,6.08
2019-04-25T06:58:49.258Z,5.20
2019-04-25T06:59:25.962Z,5.22
2019-04-25T06:59:59.889Z,5.03
2019-04-25T07:00:40.944Z,5.05
2019-04-25T07:01:10.657Z,5.67
2019-04-25T07:01:45.273Z,5.47
2019-04-25T07:02:19.552Z,5.00
2019-04-25T07:02:53.782Z,5.83
2019-04-25T07:03:28.093Z,6.22
2019-04-25T07:04:03.989Z,6.78
2019-04-25T07:04:38.682Z,5.90
2019-04-25T07:05:26.159Z,6.10
2019-04-25T07:05:50.032Z,5.95
2019-04-25T07:06:25.238Z,8.05
2019-04-25T07:07:10.539Z,5.75
2019-04-25T07:07:36.534Z,7.50
2019-04-25T07:08:11.041Z,10.40
2019-04-25T07:08:45.364Z,6.62
2019-04-25T07:09:19.827Z,5.87
2019-04-25T07:09:54.172Z,5.03
2019-04-25T07:10:29.443Z,5.00
2019-04-25T07:11:04.334Z,6.45
2019-04-25T07:11:39.011Z,6.75
2019-04-25T07:12:13.665Z,5.22
2019-04-25T07:12:48.143Z,5.10
2019-04-25T07:13:24.779Z,5.20
2019-04-25T07:13:58.871Z,4.45
2019-04-25T07:14:33.843Z,6.67
2019-04-25T07:15:10.630Z,5.50
2019-04-25T07:15:45.253Z,5.05
2019-04-25T07:16:19.477Z,5.87
2019-04-25T07:16:53.788Z,5.87
2019-04-25T07:17:28.296Z,5.40
2019-04-25T07:18:03.820Z,6.22
2019-04-25T07:18:38.370Z,5.10
2019-04-25T07:19:14.387Z,6.30
2019-04-25T07:19:49.061Z,6.95
2019-04-25T07:20:26.087Z,7.47
2019-04-25T07:20:59.812Z,6.45
2019-04-25T07:21:35.425Z,6.22
2019-04-25T07:22:10.106Z,7.03
2019-04-25T07:22:44.509Z,6.10
2019-04-25T07:23:18.919Z,4.90
2019-04-25T07:23:54.151Z,5.67
2019-04-25T07:24:29.075Z,5.90
2019-04-25T07:25:03.846Z,8.53
2019-04-25T07:25:41.782Z,8.55
2019-04-25T07:26:26.095Z,4.72
2019-04-25T07:27:19.871Z,6.17
2019-04-25T07:28:23.859Z,5.83
2019-04-25T07:29:08.613Z,5.78
2019-04-25T07:30:02.010Z,5.87
2019-04-25T07:30:52.168Z,5.78
2019-04-25T07:31:41.870Z,4.58
2019-04-25T07:32:30.821Z,5.17
2019-04-25T07:33:13.851Z,5.05
2019-04-25T07:33:55.546Z,5.17
2019-04-25T07:34:30.320Z,5.17
2019-04-25T07:35:05.501Z,5.62
2019-04-25T07:35:39.868Z,5.35
2019-04-25T07:36:15.633Z,5.75
2019-04-25T07:36:50.511Z,5.10
2019-04-25T07:37:25.966Z,5.03
2019-04-25T07:38:00.482Z,4.58
2019-04-25T07:38:35.043Z,5.05
2019-04-25T07:39:10.912Z,5.85
2019-04-25T07:39:45.353Z,6.10
2019-04-25T07:40:20.374Z,6.78
2019-04-25T07:40:54.911Z,4.97
2019-04-25T07:41:29.352Z,5.12
2019-04-25T07:42:04.220Z,5.75
2019-04-25T07:42:38.490Z,5.67
2019-04-25T07:43:13.440Z,5.17
2019-04-25T07:43:47.962Z,5.12
2019-04-25T07:44:35.318Z,5.53
2019-04-25T07:44:58.726Z,5.37
2019-04-25T07:45:34.558Z,5.22
2019-04-25T07:46:10.149Z,5.45
2019-04-25T07:46:44.603Z,4.95
2019-04-25T07:47:18.940Z,6.42
2019-04-25T07:47:54.164Z,6.15
2019-04-25T07:48:28.721Z,6.00
2019-04-25T07:49:03.488Z,4.83
2019-04-25T07:49:38.003Z,4.97
2019-04-25T07:50:13.961Z,5.53
2019-04-25T07:50:48.843Z,5.85
2019-04-25T07:51:23.704Z,5.72
2019-04-25T07:51:58.111Z,6.47
2019-04-25T07:52:33.580Z,5.12
2019-04-25T07:53:08.917Z,8.78
2019-04-25T07:53:43.729Z,6.00
2019-04-25T07:54:18.091Z,5.53
2019-04-25T07:54:53.906Z,6.22
2019-04-25T07:55:29.201Z,6.10
2019-04-25T07:56:04.240Z,5.35
2019-04-25T07:56:38.653Z,5.03
2019-04-25T07:57:13.540Z,5.72
2019-04-25T07:57:48.034Z,6.50
2019-04-25T07:58:34.061Z,6.35
2019-04-25T07:58:58.388Z,9.35
2019-04-25T07:59:34.823Z,9.78
2019-04-25T08:00:13.332Z,4.85
2019-04-25T08:00:47.834Z,4.40
2019-04-25T08:01:23.586Z,4.37
2019-04-25T08:01:58.314Z,4.67
2019-04-25T08:02:34.119Z,5.25
2019-04-25T08:03:09.053Z,4.92
2019-04-25T08:03:44.065Z,5.03
2019-04-25T08:04:18.566Z,4.85
2019-04-25T08:04:54.347Z,5.40
2019-04-25T08:05:29.597Z,6.62
2019-04-25T08:06:05.239Z,6.25
2019-04-25T08:06:39.804Z,5.80
2019-04-25T08:07:14.495Z,5.72
2019-04-25T08:07:49.020Z,5.15
2019-04-25T08:08:23.534Z,6.78